.
WxDataArchive / Data Records for 2006-03-22
2006-03-21 March 2006 2006-03-23

Data Records for Wednesday, 22 March 2006

Time	Temp	Chill	HIndex	Humid	Dewpt	 Wind 	HiWind	WindDir	Rain 	Barom 
-----	----	-----	------	-----	-----	------	------	-------	-----	----- 
00:00	25.3	25.3	25.3	76	18.8	0	1	315	0.00	30.103 
00:05	25.3	25.3	25.3	76	18.8	0	2	315	0.00	30.103 
00:10	25.3	25.3	25.3	76	18.8	0	2	315	0.00	30.103 
00:15	25.3	25.3	25.3	76	18.8	0	2	315	0.00	30.105 
00:20	25.1	25.1	25.1	77	18.9	0	2	315	0.00	30.105 
00:25	25.1	25.1	25.1	77	18.9	0	1	315	0.00	30.105 
00:30	25.1	25.1	25.1	77	18.9	0	1	315	0.00	30.118 
00:35	25.1	25.1	25.1	77	18.9	0	2	315	0.00	30.118 
00:40	25.0	25.0	25.0	77	18.8	0	1	315	0.00	30.118 
00:45	24.8	24.8	24.8	77	18.6	0	1	315	0.00	30.119 
00:50	24.7	24.7	24.7	77	18.5	0	1	315	0.00	30.119 
00:55	24.5	24.5	24.5	77	18.3	0	1	315	0.00	30.119 
01:00	24.4	24.4	24.4	77	18.2	0	2	315	0.00	30.124 
01:05	24.4	24.4	24.4	77	18.2	0	1	315	0.00	30.124 
01:10	24.2	24.2	24.2	77	18.1	0	1	315	0.00	30.124 
01:15	24.1	24.1	24.1	77	18.0	0	1	315	0.00	30.121 
01:20	23.9	23.9	23.9	77	17.8	0	2	315	0.00	30.121 
01:25	23.8	23.8	23.8	77	17.7	0	1	315	0.00	30.121 
01:30	23.8	23.8	23.8	77	17.7	0	1	315	0.00	30.121 
01:35	23.6	23.6	23.6	77	17.5	0	1	315	0.00	30.121 
01:40	23.5	23.5	23.5	77	17.4	0	1	315	0.00	30.121 
01:45	23.5	23.5	23.5	77	17.4	0	2	315	0.00	30.128 
01:50	23.3	23.3	23.3	77	17.2	0	1	315	0.00	30.128 
01:55	23.3	23.3	23.3	77	17.2	0	1	315	0.00	30.128 
02:00	23.2	23.2	23.2	77	17.1	0	1	315	0.00	30.129 
02:05	23.2	23.2	23.2	77	17.1	0	1	315	0.00	30.129 
02:10	23.2	23.2	23.2	77	17.1	0	1	315	0.00	30.129 
02:15	23.0	23.0	23.0	76	16.6	0	1	315	0.00	30.131 
02:20	23.0	23.0	23.0	76	16.6	0	1	315	0.00	30.131 
02:25	23.0	23.0	23.0	76	16.6	0	1	315	0.00	30.131 
02:30	23.0	23.0	23.0	76	16.6	0	1	315	0.00	30.134 
02:35	22.9	22.9	22.9	76	16.5	0	1	315	0.00	30.134 
02:40	22.9	22.9	22.9	76	16.5	0	1	315	0.00	30.134 
02:45	22.7	22.7	22.7	75	16.0	0	1	315	0.00	30.132 
02:50	22.7	22.7	22.7	75	16.0	0	1	315	0.00	30.132 
02:55	22.7	22.7	22.7	75	16.0	0	1	315	0.00	30.132 
03:00	22.7	22.7	22.7	75	16.0	0	2	315	0.00	30.134 
03:05	22.7	22.7	22.7	75	16.0	0	2	315	0.00	30.134 
03:10	22.7	22.7	22.7	75	16.0	0	1	315	0.00	30.134 
03:15	22.7	22.7	22.7	75	16.0	0	2	315	0.00	30.135 
03:20	22.7	22.7	22.7	75	16.0	1	2	315	0.00	30.135 
03:25	22.9	22.9	22.9	74	15.9	1	4	248	0.00	30.135 
03:30	22.9	22.9	22.9	74	15.9	0	2	248	0.00	30.136 
03:35	22.9	22.9	22.9	74	15.9	1	3	248	0.00	30.136 
03:40	22.9	22.9	22.9	74	15.9	0	2	248	0.00	30.136 
03:45	22.9	22.9	22.9	73	15.6	0	2	248	0.00	30.142 
03:50	22.9	22.9	22.9	73	15.6	1	3	248	0.00	30.142 
03:55	23.0	23.0	23.0	73	15.7	1	2	248	0.00	30.142 
04:00	23.0	23.0	23.0	73	15.7	1	2	248	0.00	30.143 
04:05	23.3	23.3	23.3	73	15.9	1	3	248	0.00	30.143 
04:10	23.5	23.5	23.5	73	16.1	1	3	248	0.00	30.143 
04:15	23.8	23.8	23.8	73	16.4	1	2	292	0.00	30.146 
04:20	23.9	23.9	23.9	73	16.5	1	3	270	0.00	30.146 
04:25	24.1	24.1	24.1	73	16.7	0	2	248	0.00	30.146 
04:30	24.2	24.2	24.2	73	16.8	1	2	248	0.00	30.148 
04:35	24.5	24.5	24.5	73	17.1	1	3	315	0.00	30.148 
04:40	24.8	24.8	24.8	73	17.4	2	5	292	0.00	30.148 
04:45	25.1	25.1	25.1	73	17.7	1	2	292	0.00	30.158 
04:50	25.3	25.3	25.3	73	17.9	1	3	292	0.00	30.158 
04:55	25.4	25.4	25.4	72	17.7	1	2	270	0.00	30.158 
05:00	25.7	25.7	25.7	73	18.3	1	3	270	0.00	30.160 
05:05	25.8	25.8	25.8	72	18.0	1	3	270	0.00	30.160 
05:10	26.0	26.0	26.0	72	18.2	1	3	270	0.00	30.160 
05:15	26.1	26.1	26.1	72	18.3	1	3	270	0.00	30.162 
05:20	26.1	26.1	26.1	71	18.0	1	3	248	0.00	30.162 
05:25	26.1	26.1	26.1	72	18.3	0	2	248	0.00	30.162 
05:30	26.1	26.1	26.1	72	18.3	1	2	248	0.00	30.167 
05:35	26.3	26.3	26.3	72	18.5	1	3	248	0.00	30.167 
05:40	26.3	26.3	26.3	72	18.5	0	2	248	0.00	30.167 
05:45	26.3	26.3	26.3	72	18.5	1	2	248	0.00	30.170 
05:50	26.4	26.4	26.4	72	18.6	1	3	248	0.00	30.170 
05:55	26.4	26.4	26.4	72	18.6	0	2	248	0.00	30.170 
06:00	26.6	26.6	26.6	72	18.8	0	2	248	0.00	30.172 
06:05	26.6	26.6	26.6	71	18.5	1	3	248	0.00	30.172 
06:10	26.6	26.6	26.6	71	18.5	1	3	248	0.00	30.172 
06:15	26.7	26.7	26.7	71	18.6	1	2	248	0.00	30.178 
06:20	26.7	26.7	26.7	72	18.9	1	2	248	0.00	30.178 
06:25	26.9	26.9	26.9	71	18.8	1	2	248	0.00	30.178 
06:30	26.9	26.9	26.9	72	19.1	0	1	248	0.00	30.179 
06:35	27.0	27.0	27.0	72	19.2	0	2	248	0.00	30.179 
06:40	27.0	27.0	27.0	72	19.2	1	3	248	0.00	30.179 
06:45	27.2	27.2	27.2	72	19.4	1	2	248	0.00	30.186 
06:50	27.2	27.2	27.2	73	19.7	1	3	248	0.00	30.186 
06:55	27.3	27.3	27.3	73	19.8	1	3	248	0.00	30.186 
07:00	27.3	27.3	27.3	73	19.8	1	3	248	0.00	30.186 
07:05	27.5	27.5	27.5	73	20.0	1	2	248	0.00	30.186 
07:10	27.5	27.5	27.5	73	20.0	1	3	248	0.00	30.186 
07:15	27.6	27.6	27.6	72	19.8	1	3	248	0.00	30.189 
07:20	27.8	27.8	27.8	73	20.3	0	2	248	0.00	30.189 
07:25	27.8	27.8	27.8	73	20.3	1	4	248	0.00	30.189 
07:30	27.9	27.9	27.9	73	20.4	1	2	248	0.00	30.191 
07:35	28.1	28.1	28.1	73	20.6	1	3	248	0.00	30.191 
07:40	28.2	28.2	28.2	73	20.7	2	5	248	0.00	30.191 
07:45	28.2	28.2	28.2	73	20.7	1	4	270	0.00	30.193 
07:50	28.4	28.4	28.4	73	20.9	1	4	248	0.00	30.193 
07:55	28.5	28.5	28.5	73	21.0	1	3	248	0.00	30.193 
08:00	28.7	28.7	28.7	73	21.2	1	5	248	0.00	30.192 
08:05	29.0	29.0	29.0	74	21.8	1	2	248	0.00	30.192 
08:10	29.1	29.1	29.1	73	21.5	2	6	248	0.00	30.192 
08:15	29.4	29.4	29.4	73	21.8	1	4	248	0.00	30.197 
08:20	29.5	29.5	29.5	73	21.9	1	3	248	0.00	30.197 
08:25	29.8	29.8	29.8	73	22.2	1	4	248	0.00	30.197 
08:30	30.0	30.0	30.0	73	22.4	2	6	248	0.00	30.195 
08:35	30.3	30.3	30.3	73	22.7	1	5	248	0.00	30.195 
08:40	30.6	30.6	30.6	73	23.0	1	3	270	0.00	30.195 
08:45	30.7	30.7	30.7	72	22.8	2	7	270	0.00	30.195 
08:50	30.7	30.7	30.7	72	22.8	2	5	270	0.00	30.195 
08:55	31.0	31.0	31.0	72	23.1	2	5	248	0.00	30.195 
09:00	31.2	31.2	31.2	72	23.2	2	6	248	0.00	30.196 
09:05	31.3	31.3	31.3	73	23.7	2	4	270	0.00	30.196 
09:10	31.5	31.5	31.5	72	23.5	2	5	270	0.00	30.196 
09:15	31.8	31.8	31.8	72	23.8	2	4	270	0.00	30.197 
09:20	31.9	31.9	31.9	72	23.9	2	4	248	0.00	30.197 
09:25	32.2	32.2	32.2	71	23.9	2	4	248	0.00	30.197 
09:30	32.2	32.2	32.2	71	23.9	3	6	270	0.00	30.199 
09:35	32.2	32.2	32.2	71	23.9	2	6	248	0.00	30.199 
09:40	32.4	32.4	32.4	70	23.7	3	5	270	0.00	30.199 
09:45	32.4	32.4	32.4	71	24.1	2	7	292	0.00	30.204 
09:50	32.5	32.5	32.5	71	24.2	2	5	270	0.00	30.204 
09:55	32.5	32.5	32.5	71	24.2	3	7	270	0.00	30.204 
10:00	32.7	32.7	32.7	71	24.4	2	5	270	0.00	30.198 
10:05	32.8	32.8	32.8	70	24.1	3	7	270	0.00	30.198 
10:10	32.9	32.9	32.9	70	24.2	3	7	270	0.00	30.198 
10:15	33.4	33.4	33.4	70	24.7	2	5	270	0.00	30.197 
10:20	34.0	34.0	34.0	68	24.6	2	10	248	0.00	30.197 
10:25	34.4	34.4	34.4	68	24.9	3	7	270	0.00	30.197 
10:30	34.4	30.8	34.4	66	24.2	4	12	270	0.00	30.195 
10:35	34.6	34.6	34.6	68	25.1	2	6	292	0.00	30.195 
10:40	34.9	34.9	34.9	68	25.4	3	6	248	0.00	30.195 
10:45	35.0	35.0	35.0	66	24.8	3	12	270	0.00	30.194 
10:50	35.5	32.1	35.5	65	24.9	4	7	270	0.00	30.194 
10:55	36.2	36.2	36.2	64	25.2	3	9	270	0.00	30.194 
11:00	36.2	36.2	36.2	63	24.8	3	7	270	0.00	30.194 
11:05	36.5	36.5	36.5	63	25.1	2	5	338	0.00	30.194 
11:10	36.5	36.5	36.5	62	24.7	3	10	292	0.00	30.194 
11:15	37.3	37.3	37.3	62	25.5	3	6	270	0.00	30.189 
11:20	38.0	38.0	38.0	60	25.4	3	7	270	0.00	30.189 
11:25	37.5	37.5	37.5	60	24.9	3	6	315	0.00	30.189 
11:30	37.6	37.6	37.6	61	25.4	3	7	292	0.00	30.187 
11:35	38.5	38.5	38.5	59	25.4	3	9	270	0.00	30.187 
11:40	39.6	39.6	39.6	59	26.5	3	9	270	0.00	30.187 
11:45	39.9	37.2	39.9	59	26.7	4	7	270	0.00	30.184 
11:50	40.1	37.4	40.1	57	26.1	4	11	270	0.00	30.184 
11:55	40.5	40.5	40.5	59	27.3	3	9	270	0.00	30.184 
12:00	39.8	37.1	39.8	56	25.4	4	8	270	0.00	30.184 
12:05	39.8	39.8	39.8	58	26.2	3	6	270	0.00	30.184 
12:10	40.5	40.5	40.5	57	26.5	3	6	270	0.00	30.184 
12:15	40.5	40.5	40.5	54	25.2	3	9	315	0.00	30.183 
12:20	40.1	40.1	40.1	54	24.8	3	5	292	0.00	30.183 
12:25	39.9	39.9	39.9	57	25.9	3	6	270	0.00	30.183 
12:30	40.3	40.3	40.3	54	25.0	3	7	338	0.00	30.180 
12:35	39.9	39.9	39.9	57	25.9	3	12	292	0.00	30.180 
12:40	40.3	40.3	40.3	55	25.4	3	10	270	0.00	30.180 
12:45	41.1	41.1	41.1	55	26.2	3	8	270	0.00	30.172 
12:50	41.2	41.2	41.2	54	25.8	3	8	270	0.00	30.172 
12:55	42.2	39.9	42.2	57	28.1	4	9	270	0.00	30.172 
13:00	42.9	40.7	42.9	53	27.0	4	10	270	0.00	30.167 
13:05	42.5	42.5	42.5	54	27.0	3	7	338	0.00	30.167 
13:10	43.1	43.1	43.1	56	28.5	2	6	270	0.00	30.167 
13:15	43.3	43.3	43.3	52	26.9	3	8	270	0.00	30.164 
13:20	43.2	43.2	43.2	52	26.8	3	7	270	0.00	30.164 
13:25	43.3	43.3	43.3	51	26.4	2	6	270	0.00	30.164 
13:30	43.2	43.2	43.2	54	27.7	3	7	315	0.00	30.153 
13:35	43.1	43.1	43.1	52	26.7	3	14	270	0.00	30.153 
13:40	43.9	43.9	43.9	51	27.0	3	9	270	0.00	30.153 
13:45	44.3	44.3	44.3	50	26.8	3	6	270	0.00	30.149 
13:50	44.5	42.5	44.5	49	26.5	4	7	270	0.00	30.149 
13:55	44.2	42.2	44.2	51	27.2	4	10	270	0.00	30.149 
14:00	44.1	42.1	44.1	48	25.7	4	10	270	0.00	30.147 
14:05	43.8	43.8	43.8	51	26.9	3	7	270	0.00	30.147 
14:10	44.6	44.6	44.6	49	26.6	3	10	270	0.00	30.147 
14:15	44.8	42.9	44.8	48	26.3	4	10	270	0.00	30.143 
14:20	45.4	45.4	45.4	46	25.8	3	9	270	0.00	30.143 
14:25	44.9	44.9	44.9	46	25.4	3	9	270	0.00	30.143 
14:30	45.7	43.9	45.7	50	28.1	4	10	270	0.00	30.142 
14:35	44.9	43.0	44.9	46	25.4	4	9	270	0.00	30.142 
14:40	44.5	42.5	44.5	48	26.0	4	7	270	0.00	30.142 
14:45	45.5	43.7	45.5	47	26.5	4	9	270	0.00	30.145 
14:50	44.8	42.9	44.8	46	25.3	4	7	270	0.00	30.145 
14:55	44.3	44.3	44.3	48	25.9	3	7	270	0.00	30.145 
15:00	45.1	45.1	45.1	49	27.1	2	4	270	0.00	30.142 
15:05	44.9	43.0	44.9	46	25.4	4	9	270	0.00	30.142 
15:10	44.9	44.9	44.9	46	25.4	3	7	292	0.00	30.142 
15:15	45.5	45.5	45.5	47	26.5	3	8	292	0.00	30.139 
15:20	45.8	45.8	45.8	47	26.7	2	6	338	0.00	30.139 
15:25	46.4	46.4	46.4	45	26.2	3	10	270	0.00	30.139 
15:30	45.8	44.0	45.8	45	25.7	4	12	270	0.00	30.144 
15:35	46.2	46.2	46.2	46	26.6	3	7	270	0.00	30.144 
15:40	46.1	46.1	46.1	48	27.5	3	6	270	0.00	30.144 
15:45	46.4	46.4	46.4	46	26.8	2	6	270	0.00	30.141 
15:50	46.1	44.4	46.1	45	26.0	4	7	270	0.00	30.141 
15:55	45.7	45.7	45.7	46	26.1	3	5	292	0.00	30.141 
16:00	46.1	46.1	46.1	46	26.5	3	5	292	0.00	30.140 
16:05	45.7	45.7	45.7	46	26.1	2	7	292	0.00	30.140 
16:10	45.1	45.1	45.1	47	26.1	2	4	292	0.00	30.140 
16:15	45.1	45.1	45.1	47	26.1	2	6	0	0.00	30.136 
16:20	45.4	45.4	45.4	47	26.4	2	5	0	0.00	30.136 
16:25	45.8	44.0	45.8	45	25.7	4	9	270	0.00	30.136 
16:30	45.2	45.2	45.2	45	25.1	2	5	315	0.00	30.136 
16:35	45.1	45.1	45.1	46	25.6	1	4	338	0.00	30.136 
16:40	45.1	45.1	45.1	46	25.6	3	9	292	0.00	30.136 
16:45	44.5	44.5	44.5	48	26.0	2	5	315	0.00	30.138 
16:50	44.5	44.5	44.5	47	25.5	2	7	315	0.00	30.138 
16:55	44.6	44.6	44.6	45	24.6	2	4	315	0.00	30.138 
17:00	44.9	44.9	44.9	47	25.9	2	5	338	0.00	30.148 
17:05	45.1	45.1	45.1	46	25.6	3	9	292	0.00	30.148 
17:10	44.9	44.9	44.9	47	25.9	3	7	270	0.00	30.148 
17:15	44.8	44.8	44.8	46	25.3	3	5	270	0.00	30.148 
17:20	44.9	44.9	44.9	46	25.4	3	7	270	0.00	30.148 
17:25	44.6	44.6	44.6	46	25.1	3	10	270	0.00	30.148 
17:30	44.3	44.3	44.3	46	24.8	2	5	270	0.00	30.150 
17:35	44.2	44.2	44.2	47	25.3	2	6	248	0.00	30.150 
17:40	43.9	43.9	43.9	48	25.5	2	5	270	0.00	30.150 
17:45	43.6	43.6	43.6	48	25.2	2	5	292	0.00	30.154 
17:50	43.3	43.3	43.3	49	25.4	2	5	248	0.00	30.154 
17:55	43.2	43.2	43.2	49	25.3	3	8	270	0.00	30.154 
18:00	42.9	42.9	42.9	49	25.1	2	5	315	0.00	30.163 
18:05	42.8	42.8	42.8	50	25.5	2	4	292	0.00	30.163 
18:10	42.6	42.6	42.6	49	24.8	2	6	292	0.00	30.163 
18:15	42.3	42.3	42.3	50	25.0	2	4	270	0.00	30.166 
18:20	42.2	42.2	42.2	51	25.4	2	5	248	0.00	30.166 
18:25	41.9	41.9	41.9	51	25.1	2	5	270	0.00	30.166 
18:30	41.6	41.6	41.6	51	24.8	1	3	270	0.00	30.170 
18:35	41.3	41.3	41.3	52	25.0	2	5	248	0.00	30.170 
18:40	41.1	41.1	41.1	52	24.8	1	4	248	0.00	30.170 
18:45	40.8	40.8	40.8	53	25.0	2	4	338	0.00	30.175 
18:50	40.6	40.6	40.6	53	24.8	2	4	248	0.00	30.175 
18:55	40.3	40.3	40.3	54	25.0	1	4	292	0.00	30.175 
19:00	40.1	40.1	40.1	54	24.8	2	5	315	0.00	30.181 
19:05	39.8	39.8	39.8	55	25.0	1	4	315	0.00	30.181 
19:10	39.5	39.5	39.5	56	25.1	1	2	270	0.00	30.181 
19:15	39.2	39.2	39.2	56	24.8	1	2	248	0.00	30.184 
19:20	38.9	38.9	38.9	56	24.6	1	3	248	0.00	30.184 
19:25	38.8	38.8	38.8	57	24.9	1	3	270	0.00	30.184 
19:30	38.6	38.6	38.6	57	24.7	1	3	270	0.00	30.184 
19:35	38.3	38.3	38.3	57	24.4	1	3	248	0.00	30.184 
19:40	38.2	38.2	38.2	58	24.7	0	2	270	0.00	30.184 
19:45	37.8	37.8	37.8	58	24.4	0	1	270	0.00	30.185 
19:50	37.5	37.5	37.5	59	24.5	0	1	270	0.00	30.185 
19:55	37.2	37.2	37.2	59	24.2	0	1	270	0.00	30.185 
20:00	37.0	37.0	37.0	60	24.4	0	1	270	0.00	30.189 
20:05	36.9	36.9	36.9	60	24.3	0	2	270	0.00	30.189 
20:10	36.8	36.8	36.8	60	24.2	0	1	270	0.00	30.189 
20:15	36.8	36.8	36.8	60	24.2	0	2	270	0.00	30.197 
20:20	36.6	36.6	36.6	61	24.4	0	2	270	0.00	30.197 
20:25	36.5	36.5	36.5	61	24.3	0	1	270	0.00	30.197 
20:30	36.2	36.2	36.2	61	24.1	0	0	---	0.00	30.198 
20:35	35.9	35.9	35.9	62	24.2	0	0	---	0.00	30.198 
20:40	35.6	35.6	35.6	62	23.9	0	0	---	0.00	30.198 
20:45	35.3	35.3	35.3	62	23.6	0	0	---	0.00	30.202 
20:50	34.9	34.9	34.9	63	23.6	0	0	---	0.00	30.202 
20:55	34.3	34.3	34.3	64	23.4	0	0	---	0.00	30.202 
21:00	33.8	33.8	33.8	65	23.3	0	0	---	0.00	30.211 
21:05	33.2	33.2	33.2	65	22.7	0	0	---	0.00	30.211 
21:10	32.8	32.8	32.8	66	22.7	0	0	---	0.00	30.211 
21:15	32.2	32.2	32.2	68	22.8	0	0	---	0.00	30.210 
21:20	31.6	31.6	31.6	69	22.6	0	0	---	0.00	30.210 
21:25	31.2	31.2	31.2	71	22.9	0	0	---	0.00	30.210 
21:30	30.9	30.9	30.9	72	23.0	0	0	---	0.00	30.210 
21:35	30.4	30.4	30.4	72	22.5	0	0	---	0.00	30.210 
21:40	30.3	30.3	30.3	73	22.7	0	0	---	0.00	30.210 
21:45	30.1	30.1	30.1	73	22.5	0	0	---	0.00	30.214 
21:50	30.0	30.0	30.0	73	22.4	0	0	---	0.00	30.214 
21:55	29.7	29.7	29.7	73	22.1	0	0	---	0.00	30.214 
22:00	29.4	29.4	29.4	74	22.2	0	0	---	0.00	30.216 
22:05	29.1	29.1	29.1	75	22.2	0	0	---	0.00	30.216 
22:10	28.8	28.8	28.8	76	22.2	0	0	---	0.00	30.216 
22:15	28.5	28.5	28.5	76	21.9	0	0	---	0.00	30.214 
22:20	28.2	28.2	28.2	76	21.6	0	0	---	0.00	30.214 
22:25	28.1	28.1	28.1	77	21.8	0	0	---	0.00	30.214 
22:30	27.9	27.9	27.9	78	21.9	0	0	---	0.00	30.216 
22:35	27.8	27.8	27.8	79	22.2	0	0	---	0.00	30.216 
22:40	27.8	27.8	27.8	80	22.4	0	0	---	0.00	30.216 
22:45	28.1	28.1	28.1	80	22.7	0	0	---	0.00	30.209 
22:50	28.4	28.4	28.4	79	22.7	0	0	---	0.00	30.209 
22:55	28.7	28.7	28.7	79	23.0	0	0	---	0.00	30.209 
23:00	29.0	29.0	29.0	79	23.3	0	0	---	0.00	30.206 
23:05	29.1	29.1	29.1	79	23.4	0	0	---	0.00	30.206 
23:10	29.4	29.4	29.4	80	24.0	0	0	---	0.00	30.206 
23:15	29.5	29.5	29.5	80	24.1	0	0	---	0.00	30.199 
23:20	29.8	29.8	29.8	79	24.1	0	1	270	0.00	30.199 
23:25	30.1	30.1	30.1	79	24.4	0	0	---	0.00	30.199 
23:30	30.3	30.3	30.3	78	24.3	0	0	---	0.00	30.198 
23:35	30.6	30.6	30.6	77	24.3	0	0	---	0.00	30.198 
23:40	30.7	30.7	30.7	77	24.4	0	0	---	0.00	30.198 
23:45	31.0	31.0	31.0	76	24.3	0	0	---	0.00	30.193 
23:50	31.3	31.3	31.3	75	24.3	0	0	---	0.00	30.193 
23:55	31.6	31.6	31.6	75	24.6	0	0	---	0.00	30.193 

CoCoRaHS
IN-AL-39
A2 Web Hosting
Creative Commons License
GoDaddy
Look for:

loaded 2017-10-19 20:16:59 • last modified 2010-11-18 10:43:29
Privacy PolicyDisclaimer
• wx.awcolley.com is powered by PmWiki v.2002016 •
• all content (unless otherwise noted) © 2017 A W Colley